Time;durP1;ratioP1;P1;durP2;ratioP2;P2;SDS_P1;SDS_P2;PMS_P1;PMS_P2;Temp;Humidity;BMP_temperature;BMP_pressure;BME280_temperature;BME280_humidity;BME280_pressure;Samples;Min_cycle;Max_cycle;Signal;HPM_P1;HPM_P2
2021/12/17 00:04:58;;;;;;;74.13;17.95;;;;;;;;;;5074496;28;20057;-75
2021/12/17 00:07:25;;;;;;;63.38;18.15;;;;;;;;;;5107956;28;20043;-76
2021/12/17 00:09:52;;;;;;;73.10;20.40;;;;;;;;;;5106252;28;20033;-77
2021/12/17 00:12:19;;;;;;;61.45;17.98;;;;;;;;;;5107654;28;20122;-77
2021/12/17 00:14:48;;;;;;;55.05;18.38;;;;;;;;;;5105307;28;20040;-77
2021/12/17 00:17:18;;;;;;;88.18;19.80;;;;;;;;;;5100400;28;20047;-77
2021/12/17 00:49:34;;;;;;;57.90;15.95;;;;;;;;;;5102632;28;20054;-76
2021/12/17 00:52:02;;;;;;;46.58;14.95;;;;;;;;;;5101709;28;20482;-75
2021/12/17 00:54:35;;;;;;;44.78;14.70;;;;;;;;;;5097569;28;20043;-75
2021/12/17 00:57:05;;;;;;;44.08;15.57;;;;;;;;;;5105288;28;20133;-75
2021/12/17 00:59:31;;;;;;;38.55;15.15;;;;;;;;;;5107354;28;20028;-75
2021/12/17 01:01:58;;;;;;;39.63;14.43;;;;;;;;;;5102181;28;20024;-75
2021/12/17 01:04:24;;;;;;;36.92;14.20;;;;;;;;;;5105092;28;20098;-76
2021/12/17 01:06:50;;;;;;;39.30;15.35;;;;;;;;;;5100361;28;20038;-75
2021/12/17 01:09:19;;;;;;;31.50;14.15;;;;;;;;;;5102089;28;20051;-76
2021/12/17 01:11:46;;;;;;;36.13;15.60;;;;;;;;;;5109388;28;20067;-75
2021/12/17 01:14:12;;;;;;;39.35;15.48;;;;;;;;;;5106949;28;20571;-75
2021/12/17 01:16:38;;;;;;;29.33;13.43;;;;;;;;;;5106389;28;20062;-75
2021/12/17 01:19:44;;;;;;;31.63;14.15;;;;;;;;;;5100844;28;20371;-75
2021/12/17 01:25:01;;;;;;;26.63;13.38;;;;;;;;;;5105370;28;20037;-75
2021/12/17 01:35:42;;;;;;;35.60;15.20;;;;;;;;;;5094188;28;20058;-75
2021/12/17 01:43:37;;;;;;;25.60;13.05;;;;;;;;;;5104991;28;20028;-75
2021/12/17 01:46:05;;;;;;;30.48;14.02;;;;;;;;;;5105488;28;20469;-75
2021/12/17 01:48:38;;;;;;;29.40;14.20;;;;;;;;;;5096632;28;20028;-76
2021/12/17 01:56:54;;;;;;;27.73;14.20;;;;;;;;;;5098868;28;20066;-74
2021/12/17 01:59:30;;;;;;;26.05;13.50;;;;;;;;;;5096189;28;20040;-74
2021/12/17 02:02:01;;;;;;;27.75;13.52;;;;;;;;;;5105548;28;20118;-75
2021/12/17 02:04:27;;;;;;;27.05;13.23;;;;;;;;;;5102463;28;20032;-75
2021/12/17 02:06:53;;;;;;;28.02;14.05;;;;;;;;;;5101097;28;20478;-75
2021/12/17 02:20:39;;;;;;;23.55;13.82;;;;;;;;;;5100113;28;20051;-74
2021/12/17 02:28:41;;;;;;;31.40;14.45;;;;;;;;;;5101828;28;20068;-76
2021/12/17 02:28:48;;;;;;;34.67;14.75;;;;;;;;;;5105602;28;20100;-76
2021/12/17 02:31:32;;;;;;;28.38;13.15;;;;;;;;;;5101305;28;20027;-76
2021/12/17 02:34:02;;;;;;;29.45;13.43;;;;;;;;;;5104474;28;20042;-76
2021/12/17 02:36:31;;;;;;;28.73;13.65;;;;;;;;;;5098120;28;20071;-76
2021/12/17 02:39:36;;;;;;;27.58;13.82;;;;;;;;;;5090286;28;20042;-76
2021/12/17 02:47:14;;;;;;;29.20;13.07;;;;;;;;;;5110820;28;20054;-76
2021/12/17 02:49:42;;;;;;;26.27;12.70;;;;;;;;;;5105275;28;20054;-76
2021/12/17 02:52:08;;;;;;;24.77;11.93;;;;;;;;;;5112527;28;20035;-77
2021/12/17 02:54:35;;;;;;;28.92;13.45;;;;;;;;;;5106729;28;20030;-77
2021/12/17 02:57:01;;;;;;;30.70;13.32;;;;;;;;;;5111361;28;20421;-76
2021/12/17 02:59:28;;;;;;;29.45;13.18;;;;;;;;;;5104692;28;20389;-75
2021/12/17 03:01:55;;;;;;;26.10;12.85;;;;;;;;;;5105023;28;20024;-76
2021/12/17 03:04:21;;;;;;;22.45;12.20;;;;;;;;;;5107148;28;20026;-76
2021/12/17 03:06:47;;;;;;;26.98;13.10;;;;;;;;;;5104604;28;20028;-77
2021/12/17 03:09:13;;;;;;;32.25;13.70;;;;;;;;;;5108382;28;20047;-77
2021/12/17 03:11:39;;;;;;;29.73;14.27;;;;;;;;;;5112232;28;20047;-76
2021/12/17 03:14:07;;;;;;;25.33;12.63;;;;;;;;;;5109471;28;20027;-76
2021/12/17 03:16:42;;;;;;;36.30;14.32;;;;;;;;;;5111900;28;20054;-76
2021/12/17 03:24:39;;;;;;;42.42;14.93;;;;;;;;;;5113643;28;20393;-76
2021/12/17 03:27:05;;;;;;;44.10;15.13;;;;;;;;;;5104442;28;20032;-76
2021/12/17 03:29:31;;;;;;;48.55;16.73;;;;;;;;;;5106417;28;20067;-76
2021/12/17 03:31:59;;;;;;;43.47;16.00;;;;;;;;;;5105911;28;20481;-76
2021/12/17 03:34:24;;;;;;;47.25;16.30;;;;;;;;;;5101774;28;20035;-76
2021/12/17 03:36:57;;;;;;;55.88;17.33;;;;;;;;;;5105916;28;20039;-77
2021/12/17 03:39:24;;;;;;;73.47;18.27;;;;;;;;;;5109748;28;20366;-76
2021/12/17 03:41:51;;;;;;;67.47;18.23;;;;;;;;;;5102295;28;20028;-76
2021/12/17 03:44:18;;;;;;;69.55;17.02;;;;;;;;;;5107421;28;20369;-76
2021/12/17 03:46:47;;;;;;;48.30;17.58;;;;;;;;;;5107214;28;20546;-76
2021/12/17 03:49:14;;;;;;;51.35;18.08;;;;;;;;;;5103512;28;20047;-76
2021/12/17 03:51:51;;;;;;;55.13;17.48;;;;;;;;;;5107780;28;20070;-75
2021/12/17 03:54:17;;;;;;;71.90;17.85;;;;;;;;;;5109564;28;20492;-76
2021/12/17 03:56:43;;;;;;;56.60;17.45;;;;;;;;;;5099001;28;20028;-76
2021/12/17 03:59:10;;;;;;;55.25;17.63;;;;;;;;;;5105870;28;20542;-76
2021/12/17 04:01:40;;;;;;;50.08;16.88;;;;;;;;;;5109987;27;20503;-76
2021/12/17 04:04:06;;;;;;;74.05;17.95;;;;;;;;;;5106443;28;20028;-76
2021/12/17 04:06:33;;;;;;;48.75;16.88;;;;;;;;;;5104330;28;20044;-76
2021/12/17 04:08:59;;;;;;;63.55;18.00;;;;;;;;;;5102819;28;20016;-76
2021/12/17 04:11:25;;;;;;;43.97;15.98;;;;;;;;;;5095553;28;20027;-76
2021/12/17 04:13:56;;;;;;;48.08;17.27;;;;;;;;;;5105498;28;20077;-75
2021/12/17 04:16:26;;;;;;;46.00;16.55;;;;;;;;;;5108654;28;20028;-75
2021/12/17 04:18:53;;;;;;;49.42;16.98;;;;;;;;;;5104390;28;20053;-75
2021/12/17 04:21:19;;;;;;;51.03;16.92;;;;;;;;;;5099955;28;20019;-75
2021/12/17 04:23:46;;;;;;;37.58;15.43;;;;;;;;;;5108219;28;20119;-75
2021/12/17 04:26:13;;;;;;;46.33;15.25;;;;;;;;;;5106869;28;20066;-75
2021/12/17 04:28:45;;;;;;;47.33;16.15;;;;;;;;;;5107913;28;20031;-75
2021/12/17 04:31:12;;;;;;;52.10;16.55;;;;;;;;;;5097642;28;20093;-76
2021/12/17 04:33:42;;;;;;;57.25;16.90;;;;;;;;;;5111240;28;20029;-75
2021/12/17 04:36:09;;;;;;;55.80;16.55;;;;;;;;;;5106283;28;20016;-76
2021/12/17 04:38:36;;;;;;;52.47;15.75;;;;;;;;;;5110992;28;20032;-76
2021/12/17 04:44:22;;;;;;;51.38;17.10;;;;;;;;;;5038362;28;20423;-75
2021/12/17 04:57:13;;;;;;;42.63;15.82;;;;;;;;;;5105948;28;20023;-76
2021/12/17 04:57:48;;;;;;;68.75;18.02;;;;;;;;;;5106589;28;20504;-76
2021/12/17 05:00:20;;;;;;;62.13;16.63;;;;;;;;;;5096270;28;20036;-75
2021/12/17 05:02:49;;;;;;;80.13;19.15;;;;;;;;;;5104798;28;20039;-76
2021/12/17 05:05:16;;;;;;;99.28;21.33;;;;;;;;;;5102108;28;20073;-77
2021/12/17 05:07:49;;;;;;;86.95;18.88;;;;;;;;;;5097782;28;20035;-77
2021/12/17 05:18:16;;;;;;;107.15;18.38;;;;;;;;;;5102320;28;20517;-75
2021/12/17 05:23:12;;;;;;;89.32;17.75;;;;;;;;;;5102117;28;20035;-76
2021/12/17 05:25:38;;;;;;;91.57;17.45;;;;;;;;;;5104250;28;20035;-75
2021/12/17 05:28:04;;;;;;;54.60;16.33;;;;;;;;;;5099201;28;20185;-79
2021/12/17 05:30:32;;;;;;;71.80;16.58;;;;;;;;;;5104189;28;20480;-78
2021/12/17 05:32:58;;;;;;;57.67;16.50;;;;;;;;;;5106818;28;20046;-77
2021/12/17 05:35:25;;;;;;;57.95;15.38;;;;;;;;;;5106913;28;20338;-77
2021/12/17 05:37:51;;;;;;;44.40;15.45;;;;;;;;;;5097093;28;20036;-76
2021/12/17 05:40:17;;;;;;;66.68;16.27;;;;;;;;;;5098347;28;20036;-77
2021/12/17 05:42:44;;;;;;;82.22;17.63;;;;;;;;;;5096650;28;20034;-76
2021/12/17 05:45:34;;;;;;;98.72;16.15;;;;;;;;;;5102569;28;20469;-76
2021/12/17 05:47:56;;;;;;;77.97;16.08;;;;;;;;;;5100714;28;20059;-76
2021/12/17 05:50:22;;;;;;;85.05;16.58;;;;;;;;;;5105555;28;20124;-76
2021/12/17 05:52:49;;;;;;;75.05;16.30;;;;;;;;;;5105725;28;20035;-76
2021/12/17 05:55:16;;;;;;;77.47;16.75;;;;;;;;;;5103698;28;20051;-77
2021/12/17 05:57:42;;;;;;;70.22;15.77;;;;;;;;;;5101706;28;20413;-76
2021/12/17 06:00:08;;;;;;;48.95;15.82;;;;;;;;;;5106859;28;20035;-76
2021/12/17 06:02:34;;;;;;;46.10;16.17;;;;;;;;;;5106754;28;20465;-78
2021/12/17 06:05:00;;;;;;;55.67;16.52;;;;;;;;;;5103250;28;20036;-78
2021/12/17 06:07:27;;;;;;;52.45;16.50;;;;;;;;;;5101672;28;20495;-76
2021/12/17 06:09:53;;;;;;;45.90;15.73;;;;;;;;;;5096313;28;20024;-77
2021/12/17 06:12:19;;;;;;;52.80;16.35;;;;;;;;;;5099433;28;20123;-76
2021/12/17 06:14:45;;;;;;;55.28;15.95;;;;;;;;;;5099175;28;20459;-76
2021/12/17 06:17:11;;;;;;;148.95;19.52;;;;;;;;;;5103817;28;20382;-76
2021/12/17 06:19:37;;;;;;;127.25;19.75;;;;;;;;;;5101813;28;20044;-76
2021/12/17 06:22:03;;;;;;;109.55;17.77;;;;;;;;;;5103310;28;20118;-77
2021/12/17 06:24:29;;;;;;;120.78;17.50;;;;;;;;;;5105961;28;20046;-77
2021/12/17 06:26:55;;;;;;;109.50;19.95;;;;;;;;;;5101687;28;20035;-77
2021/12/17 06:29:21;;;;;;;143.60;18.23;;;;;;;;;;5099447;28;20039;-77
2021/12/17 06:31:47;;;;;;;100.80;20.55;;;;;;;;;;5102170;28;20108;-76
2021/12/17 06:34:13;;;;;;;163.82;18.73;;;;;;;;;;5099979;28;20127;-75
2021/12/17 06:36:39;;;;;;;69.82;16.00;;;;;;;;;;5100880;28;20165;-75
2021/12/17 06:39:05;;;;;;;40.17;15.27;;;;;;;;;;5100948;28;20106;-75
2021/12/17 06:41:31;;;;;;;76.72;18.00;;;;;;;;;;5095504;28;20036;-71
2021/12/17 06:43:59;;;;;;;55.10;15.95;;;;;;;;;;5099936;28;20035;-75
2021/12/17 06:46:50;;;;;;;93.65;17.77;;;;;;;;;;5104091;28;20118;-75
2021/12/17 06:54:54;;;;;;;59.65;17.45;;;;;;;;;;5108510;28;20591;-75
2021/12/17 07:10:42;;;;;;;29.98;13.95;;;;;;;;;;5093482;28;20051;-74
2021/12/17 07:21:32;;;;;;;25.45;12.32;;;;;;;;;;5098725;28;20051;-75
2021/12/17 07:32:29;;;;;;;36.42;17.60;;;;;;;;;;5102908;28;20082;-74
2021/12/17 07:39:34;;;;;;;30.05;15.77;;;;;;;;;;5103246;28;20027;-73
2021/12/17 07:42:00;;;;;;;35.55;18.73;;;;;;;;;;5095188;28;20489;-74
2021/12/17 07:44:26;;;;;;;25.95;12.57;;;;;;;;;;5099647;28;20062;-73
2021/12/17 07:46:52;;;;;;;34.65;18.70;;;;;;;;;;5108002;28;20106;-73
2021/12/17 07:49:18;;;;;;;34.40;18.25;;;;;;;;;;5106456;28;20537;-74
2021/12/17 07:51:44;;;;;;;38.03;18.65;;;;;;;;;;5108069;28;20048;-73
2021/12/17 07:54:10;;;;;;;30.65;14.48;;;;;;;;;;5106815;28;20043;-74
2021/12/17 07:56:39;;;;;;;29.13;12.35;;;;;;;;;;5108250;28;20043;-74
2021/12/17 07:59:09;;;;;;;32.03;14.32;;;;;;;;;;5106310;28;20035;-73
2021/12/17 08:01:36;;;;;;;29.38;12.65;;;;;;;;;;5108556;28;20541;-73
2021/12/17 08:04:06;;;;;;;29.35;15.20;;;;;;;;;;5100393;28;20538;-73
2021/12/17 08:06:33;;;;;;;32.58;13.88;;;;;;;;;;5087000;28;20051;-73
2021/12/17 08:08:59;;;;;;;31.55;13.10;;;;;;;;;;5105099;28;20119;-73
2021/12/17 08:11:25;;;;;;;26.33;11.88;;;;;;;;;;5107427;28;20030;-73
2021/12/17 08:13:53;;;;;;;23.92;10.93;;;;;;;;;;5095541;28;20030;-72
2021/12/17 08:16:34;;;;;;;23.83;11.55;;;;;;;;;;5104522;28;20012;-72
2021/12/17 08:31:58;;;;;;;22.73;10.32;;;;;;;;;;5105404;28;20036;-75
2021/12/17 08:34:24;;;;;;;22.75;11.30;;;;;;;;;;5097252;28;20027;-76
2021/12/17 08:36:50;;;;;;;20.73;10.00;;;;;;;;;;5103025;28;20036;-76
2021/12/17 08:39:16;;;;;;;27.15;11.50;;;;;;;;;;5101066;28;20042;-76
2021/12/17 08:41:42;;;;;;;21.95;10.20;;;;;;;;;;5105574;28;20036;-76
2021/12/17 08:44:09;;;;;;;24.45;10.85;;;;;;;;;;5100010;28;20082;-75
2021/12/17 08:46:36;;;;;;;40.63;19.83;;;;;;;;;;5099381;28;20035;-76
2021/12/17 08:49:03;;;;;;;34.00;17.10;;;;;;;;;;5101479;28;20122;-77
2021/12/17 08:51:30;;;;;;;22.10;12.02;;;;;;;;;;5110771;28;20051;-76
2021/12/17 08:53:56;;;;;;;19.45;10.05;;;;;;;;;;5105009;28;20031;-76
2021/12/17 08:56:23;;;;;;;23.23;10.77;;;;;;;;;;5103315;28;20052;-74
2021/12/17 08:58:53;;;;;;;23.50;10.48;;;;;;;;;;5103590;28;20126;-75
2021/12/17 09:01:19;;;;;;;21.95;10.40;;;;;;;;;;5106207;28;20042;-76
2021/12/17 09:03:47;;;;;;;21.95;10.95;;;;;;;;;;5103477;28;20089;-74
2021/12/17 09:06:13;;;;;;;22.55;10.65;;;;;;;;;;5110649;28;20023;-76
2021/12/17 09:08:39;;;;;;;107.13;58.20;;;;;;;;;;5104238;28;20481;-76
2021/12/17 09:11:05;;;;;;;26.55;13.73;;;;;;;;;;5102010;28;20119;-78
2021/12/17 09:13:31;;;;;;;23.40;11.18;;;;;;;;;;5106264;28;20047;-75
2021/12/17 09:15:58;;;;;;;22.67;10.65;;;;;;;;;;5101657;28;20032;-77
2021/12/17 09:18:25;;;;;;;19.45;10.23;;;;;;;;;;5109120;28;20392;-77
2021/12/17 09:20:51;;;;;;;21.85;9.68;;;;;;;;;;5104585;28;20052;-76
2021/12/17 09:23:17;;;;;;;26.27;10.40;;;;;;;;;;5095127;28;20024;-77
2021/12/17 09:25:43;;;;;;;24.00;11.10;;;;;;;;;;5102259;28;20550;-76
2021/12/17 09:28:10;;;;;;;25.77;11.65;;;;;;;;;;5103738;27;20028;-76
2021/12/17 09:30:36;;;;;;;23.17;11.82;;;;;;;;;;5103955;28;20502;-77
2021/12/17 09:33:02;;;;;;;21.90;11.13;;;;;;;;;;5109116;28;20057;-77
2021/12/17 09:35:29;;;;;;;23.50;10.23;;;;;;;;;;5102013;28;20035;-76
2021/12/17 09:37:55;;;;;;;20.88;10.52;;;;;;;;;;5109105;28;20028;-76
2021/12/17 09:40:21;;;;;;;19.83;9.77;;;;;;;;;;5102811;28;20039;-77
2021/12/17 09:42:47;;;;;;;25.55;10.80;;;;;;;;;;5106703;28;20031;-76
2021/12/17 09:45:15;;;;;;;17.38;9.15;;;;;;;;;;5100842;28;20028;-77
2021/12/17 09:47:41;;;;;;;20.48;9.85;;;;;;;;;;5104814;28;20035;-77
2021/12/17 09:50:08;;;;;;;21.38;10.55;;;;;;;;;;5102025;28;20485;-77
2021/12/17 09:52:34;;;;;;;67.53;34.50;;;;;;;;;;5108606;28;20028;-78
2021/12/17 09:55:00;;;;;;;22.13;11.07;;;;;;;;;;5101657;28;20527;-78
2021/12/17 09:57:26;;;;;;;19.45;10.00;;;;;;;;;;5104419;28;20055;-79
2021/12/17 09:59:53;;;;;;;22.42;10.02;;;;;;;;;;5107931;28;20043;-75
2021/12/17 10:02:19;;;;;;;21.63;9.90;;;;;;;;;;5100645;28;20503;-76
2021/12/17 10:04:46;;;;;;;22.95;10.57;;;;;;;;;;5104271;28;20099;-79
2021/12/17 10:07:23;;;;;;;18.60;9.40;;;;;;;;;;5105794;28;20083;-74
2021/12/17 10:09:53;;;;;;;34.63;16.38;;;;;;;;;;5105282;28;20389;-76
2021/12/17 10:12:23;;;;;;;33.20;18.35;;;;;;;;;;5104293;28;20354;-76
2021/12/17 10:15:07;;;;;;;28.48;15.57;;;;;;;;;;5100171;28;20047;-75
2021/12/17 10:17:35;;;;;;;22.02;10.90;;;;;;;;;;5103897;28;20032;-75
2021/12/17 10:20:01;;;;;;;30.73;16.08;;;;;;;;;;5102129;28;20485;-76
2021/12/17 10:22:29;;;;;;;21.27;10.07;;;;;;;;;;5103354;28;20055;-76
2021/12/17 10:24:58;;;;;;;24.02;12.43;;;;;;;;;;5107008;28;20465;-78
2021/12/17 10:27:27;;;;;;;34.65;17.00;;;;;;;;;;5103720;28;20023;-79
2021/12/17 10:29:53;;;;;;;23.10;11.73;;;;;;;;;;5111160;28;20103;-75
2021/12/17 10:32:21;;;;;;;19.63;9.98;;;;;;;;;;5104621;28;20116;-77
2021/12/17 10:35:00;;;;;;;17.92;10.20;;;;;;;;;;5109301;28;20024;-75
2021/12/17 10:37:35;;;;;;;24.63;11.27;;;9.60;99.90;;;;;;5120994;28;20670;-77
2021/12/17 10:40:13;;;;;;;22.45;10.35;;;;;;;;;;5105987;28;20019;-76
2021/12/17 10:42:43;;;;;;;19.05;9.88;;;;;;;;;;5106700;28;20027;-78
2021/12/17 10:45:13;;;;;;;20.02;9.65;;;;;;;;;;5101347;28;20035;-75
2021/12/17 10:47:47;;;;;;;20.17;10.32;;;;;;;;;;5101333;28;20031;-77
2021/12/17 10:50:23;;;;;;;22.95;10.23;;;;;;;;;;5103128;28;20032;-76
2021/12/17 10:52:55;;;;;;;20.35;9.70;;;;;;;;;;5092978;28;20370;-76
2021/12/17 10:55:23;;;;;;;21.67;9.93;;;;;;;;;;5101524;28;20035;-77
2021/12/17 10:57:49;;;;;;;22.70;11.00;;;;;;;;;;5095851;28;20088;-76
2021/12/17 11:00:16;;;;;;;15.30;8.95;;;;;;;;;;5101624;28;20426;-77
2021/12/17 11:02:53;;;;;;;20.27;10.52;;;;;;;;;;5099403;28;20035;-84
2021/12/17 11:05:19;;;;;;;22.60;10.07;;;;;;;;;;5108868;28;20106;-78
2021/12/17 11:07:47;;;;;;;20.65;10.38;;;;;;;;;;5112820;28;20036;-76
2021/12/17 11:10:15;;;;;;;18.48;9.93;;;;;;;;;;5109340;28;20485;-74
2021/12/17 11:12:42;;;;;;;19.63;9.55;;;;;;;;;;5104517;28;20544;-77
2021/12/17 11:15:18;;;;;;;19.13;10.10;;;;;;;;;;5102134;28;20046;-76
2021/12/17 11:17:45;;;;;;;18.27;8.88;;;;;;;;;;5108101;28;20439;-74
2021/12/17 11:20:12;;;;;;;24.70;9.32;;;;;;;;;;5109411;28;20517;-75
2021/12/17 11:22:39;;;;;;;25.00;10.00;;;;;;;;;;5106435;28;20043;-75
2021/12/17 11:25:06;;;;;;;19.13;9.85;;;;;;;;;;5108929;28;20082;-75
2021/12/17 11:27:33;;;;;;;18.17;9.70;;;;;;;;;;5099214;28;20031;-76
2021/12/17 11:29:59;;;;;;;20.88;9.00;;;;;;;;;;5109235;28;20036;-75
2021/12/17 11:32:25;;;;;;;15.50;9.05;;;;;;;;;;5096588;28;20058;-75
2021/12/17 11:34:51;;;;;;;15.52;8.45;;;;;;;;;;5104261;28;20489;-75
2021/12/17 11:37:19;;;;;;;17.92;8.98;;;;;;;;;;5107701;28;20076;-75
2021/12/17 11:39:49;;;;;;;19.60;8.95;;;;;;;;;;5104392;28;20099;-76
2021/12/17 11:42:36;;;;;;;20.05;9.75;;;9.70;99.90;;;;;;5099902;28;20492;-75
2021/12/17 11:45:23;;;;;;;19.40;9.45;;;;;;;;;;5108193;28;20031;-76
2021/12/17 11:47:49;;;;;;;16.13;8.65;;;;;;;;;;5102006;28;20511;-74
2021/12/17 11:50:16;;;;;;;16.23;8.07;;;;;;;;;;5101691;28;20031;-75
2021/12/17 11:52:43;;;;;;;16.52;8.70;;;;;;;;;;5103454;28;20476;-75
2021/12/17 11:55:26;;;;;;;18.42;8.82;;;;;;;;;;5108622;28;20031;-75
2021/12/17 11:57:54;;;;;;;18.40;7.53;;;;;;;;;;5109801;28;20077;-75
2021/12/17 12:00:24;;;;;;;10.52;6.63;;;;;;;;;;5103863;28;20420;-75
2021/12/17 12:02:51;;;;;;;14.77;7.75;;;;;;;;;;5108072;28;20020;-75
2021/12/17 12:05:34;;;;;;;11.35;7.90;;;;;;;;;;5106474;28;20031;-76
2021/12/17 12:08:19;;;;;;;11.02;7.32;;;;;;;;;;5095951;28;20024;-76
2021/12/17 12:11:01;;;;;;;14.57;7.40;;;;;;;;;;5104172;28;20635;-75
2021/12/17 12:13:54;;;;;;;21.13;8.50;;;;;;;;;;5110911;28;20031;-75
2021/12/17 12:16:24;;;;;;;14.10;7.50;;;;;;;;;;5103585;28;20032;-76
2021/12/17 12:18:51;;;;;;;14.70;7.57;;;;;;;;;;5108115;28;20027;-75
2021/12/17 12:21:19;;;;;;;12.10;6.65;;;9.80;99.90;;;;;;5108799;28;20031;-75
2021/12/17 12:23:46;;;;;;;10.50;7.03;;;;;;;;;;5108426;28;20030;-75
2021/12/17 12:26:14;;;;;;;10.80;7.68;;;;;;;;;;5106388;28;20028;-75
2021/12/17 12:28:43;;;;;;;13.15;7.68;;;;;;;;;;5102548;28;20158;-75
2021/12/17 12:31:09;;;;;;;10.32;6.93;;;;;;;;;;5103356;28;20020;-75
2021/12/17 12:33:35;;;;;;;9.85;6.88;;;;;;;;;;5105376;28;20051;-75
2021/12/17 12:36:01;;;;;;;11.15;7.80;;;;;;;;;;5104426;28;20035;-76
2021/12/17 12:38:31;;;;;;;10.05;6.90;;;;;;;;;;5106952;28;20038;-75
2021/12/17 12:40:58;;;;;;;10.23;7.53;;;;;;;;;;5113101;28;20047;-75
2021/12/17 12:43:29;;;;;;;9.20;6.07;;;;;;;;;;5107234;28;20388;-75
2021/12/17 12:45:56;;;;;;;9.20;6.78;;;;;;;;;;5098380;28;20027;-75
2021/12/17 12:48:29;;;;;;;10.60;7.38;;;;;;;;;;5100431;28;20482;-76
2021/12/17 12:51:14;;;;;;;10.80;7.43;;;;;;;;;;5100297;28;20107;-74
2021/12/17 12:53:46;;;;;;;8.20;6.20;;;;;;;;;;5108884;28;20043;-76
2021/12/17 12:56:16;;;;;;;8.82;6.63;;;;;;;;;;5108829;28;20031;-76
2021/12/17 12:58:46;;;;;;;9.23;7.68;;;;;;;;;;5109006;28;20035;-75
2021/12/17 13:01:15;;;;;;;10.48;6.95;;;;;;;;;;5106603;28;20031;-75
2021/12/17 13:03:41;;;;;;;10.07;7.25;;;;;;;;;;5103893;28;20024;-75
2021/12/17 13:06:15;;;;;;;10.95;6.50;;;;;;;;;;5104033;28;20020;-76
2021/12/17 13:08:41;;;;;;;9.15;7.32;;;;;;;;;;5097389;28;20076;-75
2021/12/17 13:11:07;;;;;;;9.13;6.95;;;;;;;;;;5101761;28;20477;-76
2021/12/17 13:13:53;;;;;;;9.68;7.03;;;;;;;;;;5097334;27;20044;-76
2021/12/17 13:21:41;;;;;;;10.25;7.05;;;;;;;;;;5102124;28;20046;-76
2021/12/17 13:24:16;;;;;;;8.57;7.57;;;;;;;;;;5104934;28;20516;-75
2021/12/17 13:26:54;;;;;;;10.80;9.00;;;;;;;;;;5104048;28;20152;-76
2021/12/17 13:29:26;;;;;;;11.43;8.95;;;;;;;;;;5100523;28;20069;-75
2021/12/17 13:32:11;;;;;;;10.00;7.78;;;;;;;;;;5104252;28;20028;-75
2021/12/17 13:34:45;;;;;;;7.13;6.30;;;;;;;;;;5102096;28;20073;-75
2021/12/17 13:37:16;;;;;;;7.65;6.47;;;;;;;;;;5103574;28;20051;-75
2021/12/17 13:39:43;;;;;;;8.13;6.35;;;;;;;;;;5107342;28;20493;-75
2021/12/17 13:42:12;;;;;;;7.80;6.22;;;;;;;;;;5100329;28;20036;-75
2021/12/17 13:44:38;;;;;;;9.60;6.38;;;;;;;;;;5110683;28;20049;-75
2021/12/17 13:47:24;;;;;;;9.98;7.28;;;9.70;99.90;;;;;;5100994;28;20016;-75
2021/12/17 13:49:59;;;;;;;8.07;6.93;;;;;;;;;;5101836;28;20569;-76
2021/12/17 13:52:26;;;;;;;8.10;6.28;;;;;;;;;;5106280;28;20070;-75
2021/12/17 13:54:53;;;;;;;9.23;6.38;;;;;;;;;;5096550;28;20028;-76
2021/12/17 13:57:20;;;;;;;8.60;6.00;;;;;;;;;;5104518;28;20036;-75
2021/12/17 13:59:46;;;;;;;9.43;6.28;;;;;;;;;;5102178;28;20091;-75
2021/12/17 14:02:23;;;;;;;6.88;5.72;;;;;;;;;;5107316;28;20034;-75
2021/12/17 14:05:06;;;;;;;5.35;4.43;;;;;;;;;;5098627;27;20028;-75
2021/12/17 14:07:32;;;;;;;5.75;5.18;;;;;;;;;;5110454;28;20423;-75
2021/12/17 14:10:18;;;;;;;6.20;5.60;;;;;;;;;;5103665;28;20035;-75
2021/12/17 14:12:45;;;;;;;8.60;6.00;;;;;;;;;;5102029;28;20081;-75
2021/12/17 14:15:13;;;;;;;8.57;5.82;;;;;;;;;;5101087;28;20028;-75
2021/12/17 14:17:42;;;;;;;6.90;6.18;;;;;;;;;;5102456;28;20031;-75
2021/12/17 14:20:13;;;;;;;8.18;6.60;;;;;;;;;;5103743;28;20084;-76
2021/12/17 14:22:40;;;;;;;6.40;5.60;;;;;;;;;;5102594;28;20036;-75
2021/12/17 14:25:24;;;;;;;9.07;6.82;;;;;;;;;;5107497;28;20793;-75
2021/12/17 14:27:51;;;;;;;8.93;6.25;;;;;;;;;;5097095;28;20161;-75
2021/12/17 14:30:33;;;;;;;9.13;6.63;;;9.90;99.90;;;;;;5108448;28;20044;-75
2021/12/17 14:32:59;;;;;;;10.80;6.13;;;;;;;;;;5100053;28;20030;-75
2021/12/17 14:35:49;;;;;;;7.25;6.25;;;9.90;99.90;;;;;;5103455;28;20035;-75
2021/12/17 14:38:15;;;;;;;9.23;6.03;;;;;;;;;;5105026;28;20525;-74
2021/12/17 14:40:47;;;;;;;8.18;7.05;;;;;;;;;;5107710;28;20388;-75
2021/12/17 14:43:28;;;;;;;7.70;5.93;;;;;;;;;;5107670;28;20023;-75
2021/12/17 14:46:07;;;;;;;6.63;5.80;;;;;;;;;;5108104;28;20035;-75
2021/12/17 14:48:41;;;;;;;8.23;6.60;;;;;;;;;;5109496;28;20493;-75
2021/12/17 15:02:14;;;;;;;7.63;5.88;;;;;;;;;;5105226;28;20282;-77
2021/12/17 15:04:40;;;;;;;8.80;6.00;;;;;;;;;;5099269;28;20511;-76
2021/12/17 15:07:06;;;;;;;6.20;5.60;;;;;;;;;;5101667;28;20122;-76
2021/12/17 15:09:35;;;;;;;18.98;14.35;;;;;;;;;;5100059;28;20046;-76
2021/12/17 15:12:11;;;;;;;17.27;8.90;;;;;;;;;;5106975;28;20036;-75
2021/12/17 15:14:37;;;;;;;9.30;6.28;;;;;;;;;;5102577;28;20177;-76
2021/12/17 15:17:04;;;;;;;5.57;4.95;;;;;;;;;;5101236;28;20044;-78
2021/12/17 15:19:30;;;;;;;5.63;4.57;;;;;;;;;;5104672;28;20040;-77
2021/12/17 15:21:56;;;;;;;10.90;5.85;;;;;;;;;;5105327;28;20032;-76
2021/12/17 15:24:22;;;;;;;7.47;6.15;;;;;;;;;;5096323;28;20142;-76
2021/12/17 15:26:48;;;;;;;9.32;5.47;;;;;;;;;;5103825;28;20115;-75
2021/12/17 15:29:14;;;;;;;6.82;5.65;;;;;;;;;;5108985;28;20027;-75
2021/12/17 15:31:40;;;;;;;7.63;5.32;;;;;;;;;;5089998;28;20051;-76
2021/12/17 15:34:06;;;;;;;8.40;6.35;;;;;;;;;;5110991;28;20941;-76
2021/12/17 15:36:32;;;;;;;8.50;5.82;;;;;;;;;;5103533;28;20031;-76
2021/12/17 15:38:58;;;;;;;6.38;5.28;;;;;;;;;;5108814;28;20024;-76
2021/12/17 15:41:24;;;;;;;7.03;5.97;;;;;;;;;;5103003;28;20054;-76
2021/12/17 15:43:51;;;;;;;9.05;6.78;;;;;;;;;;5108399;28;20020;-76
2021/12/17 15:46:17;;;;;;;7.55;6.40;;;;;;;;;;5104109;28;20024;-75
2021/12/17 15:48:45;;;;;;;7.05;6.03;;;;;;;;;;5107574;28;20395;-76
2021/12/17 15:51:11;;;;;;;7.50;6.22;;;;;;;;;;5106665;28;20431;-76
2021/12/17 15:53:37;;;;;;;8.27;6.10;;;;;;;;;;5105369;28;20070;-76
2021/12/17 15:56:04;;;;;;;7.30;6.35;;;;;;;;;;5107670;28;20054;-75
2021/12/17 15:58:30;;;;;;;9.85;6.78;;;;;;;;;;5105410;28;20110;-76
2021/12/17 16:00:56;;;;;;;11.95;6.63;;;;;;;;;;5099063;28;20032;-75
2021/12/17 16:03:30;;;;;;;7.13;5.95;;;;;;;;;;5102102;28;20031;-76
2021/12/17 16:05:57;;;;;;;6.65;5.82;;;;;;;;;;5103857;28;20035;-75
2021/12/17 16:08:23;;;;;;;7.30;6.50;;;;;;;;;;5101598;28;20027;-76
2021/12/17 16:18:53;;;;;;;10.57;7.70;;;;;;;;;;5107163;28;20085;-75
2021/12/17 16:21:19;;;;;;;;;;;;;;;;;;5111394;28;20038;-76
2021/12/17 16:23:47;;;;;;;8.48;7.32;;;;;;;;;;5104849;28;19986;-76
2021/12/17 16:26:14;;;;;;;9.65;7.85;;;;;;;;;;5105821;28;20038;-76
2021/12/17 16:28:45;;;;;;;12.52;7.55;;;;;;;;;;5102313;28;20061;-76
2021/12/17 16:31:14;;;;;;;9.57;7.97;;;;;;;;;;5105200;28;20055;-75
2021/12/17 16:33:41;;;;;;;11.45;7.43;;;;;;;;;;5100473;27;20031;-77
2021/12/17 16:36:08;;;;;;;9.63;6.70;;;;;;;;;;5095897;28;20358;-78
2021/12/17 16:38:34;;;;;;;11.00;7.53;;;;;;;;;;5098806;28;20044;-76
2021/12/17 16:41:01;;;;;;;11.30;7.43;;;;;;;;;;5100397;28;20436;-75
2021/12/17 16:43:27;;;;;;;9.35;6.68;;;;;;;;;;5102306;28;20024;-76
2021/12/17 16:48:36;;;;;;;9.30;6.97;;;;;;;;;;5105882;28;20040;-75
2021/12/17 16:51:02;;;;;;;10.75;7.45;;;;;;;;;;5104363;28;20030;-75
2021/12/17 16:53:28;;;;;;;10.90;7.20;;;;;;;;;;5101579;28;20114;-78
2021/12/17 16:55:54;;;;;;;12.50;8.95;;;;;;;;;;5100708;28;20032;-76
2021/12/17 16:58:20;;;;;;;11.75;9.15;;;;;;;;;;5104958;28;20089;-77
2021/12/17 17:00:47;;;;;;;10.38;8.45;;;;;;;;;;5102851;28;20089;-77
2021/12/17 17:03:14;;;;;;;8.35;7.43;;;;;;;;;;5101480;28;20095;-77
2021/12/17 17:05:40;;;;;;;12.48;8.52;;;;;;;;;;5096905;28;20103;-76
2021/12/17 17:08:06;;;;;;;11.13;8.27;;;;;;;;;;5098417;28;20032;-76
2021/12/17 17:10:34;;;;;;;12.07;8.75;;;;;;;;;;5096272;28;20040;-76
2021/12/17 17:13:03;;;;;;;16.27;9.18;;;;;;;;;;5100645;28;20028;-75
2021/12/17 17:15:34;;;;;;;11.55;8.73;;;;;;;;;;5109781;28;20024;-75
2021/12/17 17:18:00;;;;;;;12.95;9.50;;;;;;;;;;5101908;28;20378;-76
2021/12/17 17:20:26;;;;;;;11.00;8.88;;;;;;;;;;5098414;28;20214;-75
2021/12/17 17:22:52;;;;;;;13.50;9.77;;;;;;;;;;5098335;28;20485;-76
2021/12/17 17:25:18;;;;;;;12.23;8.57;;;;;;;;;;5095867;28;20039;-75
2021/12/17 17:27:44;;;;;;;17.73;8.63;;;;;;;;;;5101685;28;20035;-76
2021/12/17 17:30:10;;;;;;;16.55;8.18;;;;;;;;;;5095847;28;20118;-76
2021/12/17 17:32:37;;;;;;;11.40;8.13;;;;;;;;;;5104241;28;20036;-75
2021/12/17 17:35:03;;;;;;;9.85;7.18;;;;;;;;;;5105064;28;20076;-76
2021/12/17 17:37:31;;;;;;;11.52;7.78;;;;;;;;;;5103905;28;20123;-76